Terminal Aerodrome Forecast
Issued by NWS Wilmington, NC

Current Version | Previous Version | Graphics & Text | Print | Product List | Glossary Off
Versions: 1 2 3 4 5 6 7 8 9 10 11 12 13 14 15 16

000
FTUS42 KILM 291100 CCA
TAFILM
TAF COR
KILM 291130Z 2912/3012 04008KT P6SM SCT050 BKN090
     FM300000 VRB02KT P6SM SCT100=

USA.gov is the U.S. government's official web portal to all federal, state and local government web resources and services.